createdAt,value
2023-05-22T00:00:38.983Z,0.00
2023-05-22T00:01:38.778Z,0.00
2023-05-22T00:02:39.117Z,0.00
2023-05-22T00:03:38.745Z,0.00
2023-05-22T00:04:38.734Z,0.00
2023-05-22T00:05:38.718Z,0.00
2023-05-22T00:06:38.667Z,0.00
2023-05-22T00:07:38.648Z,0.00
2023-05-22T00:08:38.661Z,0.00
2023-05-22T00:09:38.611Z,0.00
2023-05-22T00:10:38.799Z,0.00
2023-05-22T00:11:38.568Z,0.00
2023-05-22T00:12:38.548Z,0.00
2023-05-22T00:13:38.530Z,0.00
2023-05-22T00:14:38.782Z,0.00
2023-05-22T00:15:38.532Z,0.00
2023-05-22T00:16:38.476Z,0.00
2023-05-22T00:17:38.478Z,0.00
2023-05-22T00:18:38.409Z,0.00
2023-05-22T00:19:38.558Z,0.00
2023-05-22T00:20:38.716Z,0.00
2023-05-22T00:21:38.355Z,0.00
2023-05-22T00:22:38.371Z,0.00
2023-05-22T00:23:38.314Z,0.00
2023-05-22T00:24:38.281Z,0.00
2023-05-22T00:25:38.284Z,0.00
2023-05-22T00:26:38.248Z,0.00
2023-05-22T00:27:38.240Z,0.00
2023-05-22T00:28:38.205Z,0.00
2023-05-22T00:29:38.189Z,0.00
2023-05-22T00:30:38.548Z,0.00
2023-05-22T00:31:38.142Z,0.00
2023-05-22T00:32:38.133Z,0.00
2023-05-22T00:33:38.106Z,0.00
2023-05-22T00:34:38.217Z,0.00
2023-05-22T00:35:38.057Z,0.00
2023-05-22T00:36:38.900Z,0.00
2023-05-22T00:37:38.014Z,0.00
2023-05-22T00:38:38.030Z,0.00
2023-05-22T00:39:37.970Z,0.00
2023-05-22T00:40:38.128Z,0.00
2023-05-22T00:41:37.924Z,0.00
2023-05-22T00:42:37.903Z,0.00
2023-05-22T00:43:37.890Z,0.00
2023-05-22T00:44:37.869Z,0.00
2023-05-22T00:45:37.846Z,0.00
2023-05-22T00:46:37.831Z,0.00
2023-05-22T00:47:37.807Z,0.00
2023-05-22T00:48:37.776Z,0.00
2023-05-22T00:49:37.757Z,0.00
2023-05-22T00:50:37.880Z,0.00
2023-05-22T00:51:37.725Z,0.00
2023-05-22T00:52:37.688Z,0.00
2023-05-22T00:53:37.669Z,0.00
2023-05-22T00:54:37.648Z,0.00
2023-05-22T00:55:38.410Z,0.00
2023-05-22T00:56:37.598Z,0.00
2023-05-22T00:57:37.592Z,0.00
2023-05-22T00:58:37.582Z,0.00
2023-05-22T00:59:37.542Z,0.00
2023-05-22T01:00:37.791Z,0.00
2023-05-22T01:01:37.534Z,0.00
2023-05-22T01:02:38.483Z,0.00
2023-05-22T01:03:37.687Z,0.00
2023-05-22T01:04:37.434Z,0.00
2023-05-22T01:05:37.430Z,0.00
2023-05-22T01:06:37.387Z,0.00
2023-05-22T01:07:37.373Z,0.00
2023-05-22T01:08:37.336Z,0.00
2023-05-22T01:09:37.327Z,0.00
2023-05-22T01:10:37.405Z,0.00
2023-05-22T01:11:37.287Z,0.00
2023-05-22T01:12:37.249Z,0.00
2023-05-22T01:13:37.242Z,0.00
2023-05-22T01:14:37.209Z,0.00
2023-05-22T01:15:37.192Z,0.00
2023-05-22T01:16:37.223Z,0.00
2023-05-22T01:17:37.158Z,0.00
2023-05-22T01:18:37.132Z,0.00
2023-05-22T01:19:37.146Z,0.00
2023-05-22T01:20:37.363Z,0.00
2023-05-22T01:21:37.073Z,0.00
2023-05-22T01:22:37.045Z,0.00
2023-05-22T01:23:37.035Z,0.00
2023-05-22T01:24:36.990Z,0.00
2023-05-22T01:25:36.972Z,0.00
2023-05-22T01:26:36.954Z,0.00
2023-05-22T01:27:36.932Z,0.00
2023-05-22T01:28:36.910Z,0.00
2023-05-22T01:29:36.890Z,0.00
2023-05-22T01:30:37.050Z,0.00
2023-05-22T01:31:36.855Z,0.00
2023-05-22T01:32:36.927Z,0.00
2023-05-22T01:33:36.872Z,0.00
2023-05-22T01:34:36.784Z,0.00
2023-05-22T01:35:36.762Z,0.00
2023-05-22T01:36:36.741Z,0.00
2023-05-22T01:37:36.726Z,0.00
2023-05-22T01:38:36.703Z,0.00
2023-05-22T01:39:36.704Z,0.00
2023-05-22T01:40:36.738Z,0.00
2023-05-22T01:41:36.629Z,0.00
2023-05-22T01:42:36.626Z,0.00
2023-05-22T01:43:36.591Z,0.00
2023-05-22T01:44:36.561Z,0.00
2023-05-22T01:45:36.566Z,0.00
2023-05-22T01:46:36.560Z,0.00
2023-05-22T01:47:36.510Z,0.00
2023-05-22T01:48:36.537Z,0.00
2023-05-22T01:49:36.512Z,0.00
2023-05-22T01:50:36.466Z,0.00
2023-05-22T01:51:36.418Z,0.00
2023-05-22T01:52:36.393Z,0.00
2023-05-22T01:53:36.376Z,0.00
2023-05-22T01:54:36.355Z,0.00
2023-05-22T01:55:36.341Z,0.00
2023-05-22T01:56:36.313Z,0.00
2023-05-22T01:57:36.287Z,0.00
2023-05-22T01:58:36.279Z,0.00
2023-05-22T01:59:36.260Z,0.00
2023-05-22T02:00:36.240Z,0.00
2023-05-22T02:01:36.226Z,0.00
2023-05-22T02:02:36.247Z,0.00
2023-05-22T02:03:36.179Z,0.00
2023-05-22T02:04:36.134Z,0.00
2023-05-22T02:05:36.109Z,0.00
2023-05-22T02:06:36.096Z,0.00
2023-05-22T02:07:36.068Z,0.00
2023-05-22T02:08:36.062Z,0.00
2023-05-22T02:09:36.032Z,0.00
2023-05-22T02:10:36.016Z,0.00
2023-05-22T02:11:36.096Z,0.00
2023-05-22T02:12:36.018Z,0.00
2023-05-22T02:13:35.945Z,0.00
2023-05-22T02:14:35.915Z,0.00
2023-05-22T02:15:35.962Z,0.00
2023-05-22T02:16:35.880Z,0.00
2023-05-22T02:17:35.863Z,0.00
2023-05-22T02:18:35.827Z,0.00
2023-05-22T02:19:35.911Z,0.00
2023-05-22T02:20:35.781Z,0.00
2023-05-22T02:21:35.761Z,0.00
2023-05-22T02:22:35.756Z,0.00
2023-05-22T02:23:35.726Z,0.00
2023-05-22T02:24:35.699Z,0.00
2023-05-22T02:25:35.709Z,0.00
2023-05-22T02:26:35.656Z,0.00
2023-05-22T02:27:35.648Z,0.00
2023-05-22T02:28:35.634Z,0.00
2023-05-22T02:29:35.590Z,0.00
2023-05-22T02:30:35.571Z,0.00
2023-05-22T02:31:35.601Z,0.00
2023-05-22T02:32:35.542Z,0.00
2023-05-22T02:33:35.507Z,0.00
2023-05-22T02:34:35.485Z,0.00
2023-05-22T02:35:35.469Z,0.00
2023-05-22T02:36:35.438Z,0.00
2023-05-22T02:37:35.428Z,0.00
2023-05-22T02:38:35.395Z,0.00
2023-05-22T02:39:35.376Z,0.00
2023-05-22T02:40:35.350Z,0.00
2023-05-22T02:41:35.327Z,0.00
2023-05-22T02:42:35.319Z,0.00
2023-05-22T02:43:35.294Z,0.00
2023-05-22T02:44:35.269Z,0.00
2023-05-22T02:45:35.249Z,0.00
2023-05-22T02:46:35.258Z,0.00
2023-05-22T02:47:35.218Z,0.00
2023-05-22T02:48:35.176Z,0.00
2023-05-22T02:49:35.154Z,0.00
2023-05-22T02:50:35.130Z,0.00
2023-05-22T02:51:35.118Z,0.00
2023-05-22T02:52:35.152Z,0.00
2023-05-22T02:53:35.071Z,0.00
2023-05-22T02:54:35.044Z,0.00
2023-05-22T02:55:35.035Z,0.00
2023-05-22T02:56:34.997Z,0.00
2023-05-22T02:57:34.976Z,0.00
2023-05-22T02:58:34.966Z,0.00
2023-05-22T02:59:34.935Z,0.00
2023-05-22T03:00:34.915Z,0.00
2023-05-22T03:01:34.906Z,0.00
2023-05-22T03:02:34.990Z,0.00
2023-05-22T03:03:34.947Z,0.00
2023-05-22T03:04:34.825Z,0.00
2023-05-22T03:05:34.814Z,0.00
2023-05-22T03:06:34.780Z,0.00
2023-05-22T03:07:34.760Z,0.00
2023-05-22T03:08:34.729Z,0.00
2023-05-22T03:09:34.714Z,0.00
2023-05-22T03:10:34.693Z,0.00
2023-05-22T03:11:34.678Z,0.00
2023-05-22T03:12:34.655Z,0.00
2023-05-22T03:13:34.634Z,0.00
2023-05-22T03:14:34.596Z,0.00
2023-05-22T03:15:34.683Z,0.00
2023-05-22T03:16:34.636Z,0.00
2023-05-22T03:17:34.612Z,0.00
2023-05-22T03:18:34.522Z,0.00
2023-05-22T03:19:34.555Z,0.00
2023-05-22T03:20:34.476Z,0.00
2023-05-22T03:21:34.470Z,0.00
2023-05-22T03:22:34.434Z,0.00
2023-05-22T03:23:34.430Z,0.00
2023-05-22T03:24:34.393Z,0.00
2023-05-22T03:25:34.380Z,0.00
2023-05-22T03:26:34.346Z,0.00
2023-05-22T03:27:34.341Z,0.00
2023-05-22T03:28:34.317Z,0.00
2023-05-22T03:29:34.279Z,5.63
2023-05-22T03:30:34.257Z,5.63
2023-05-22T03:31:34.237Z,5.63
2023-05-22T03:32:34.317Z,5.63
2023-05-22T03:33:34.227Z,5.63
2023-05-22T03:34:34.177Z,5.63
2023-05-22T03:35:34.145Z,5.63
2023-05-22T03:36:34.132Z,5.63
2023-05-22T03:37:34.104Z,5.63
2023-05-22T03:38:34.091Z,11.25
2023-05-22T03:39:34.065Z,11.25
2023-05-22T03:40:34.040Z,11.25
2023-05-22T03:41:34.019Z,11.25
2023-05-22T03:42:34.012Z,11.25
2023-05-22T03:43:33.974Z,11.25
2023-05-22T03:44:33.950Z,16.88
2023-05-22T03:45:33.995Z,16.88
2023-05-22T03:46:33.912Z,16.88
2023-05-22T03:47:33.931Z,16.88
2023-05-22T03:48:33.869Z,16.88
2023-05-22T03:49:33.842Z,22.50
2023-05-22T03:50:33.827Z,22.50
2023-05-22T03:51:33.796Z,22.50
2023-05-22T03:52:33.792Z,22.50
2023-05-22T03:53:33.760Z,28.13
2023-05-22T03:54:33.738Z,28.13
2023-05-22T03:55:33.717Z,28.13
2023-05-22T03:56:33.704Z,28.13
2023-05-22T03:57:33.678Z,33.75
2023-05-22T03:58:33.660Z,33.75
2023-05-22T03:59:33.644Z,33.75
2023-05-22T04:00:33.607Z,33.75
2023-05-22T04:01:33.576Z,33.75
2023-05-22T04:02:33.619Z,39.38
2023-05-22T04:03:33.563Z,39.38
2023-05-22T04:04:33.517Z,39.38
2023-05-22T04:05:33.611Z,39.38
2023-05-22T04:06:33.471Z,39.38
2023-05-22T04:07:33.441Z,45.00
2023-05-22T04:08:33.434Z,45.00
2023-05-22T04:09:33.413Z,45.00
2023-05-22T04:10:33.378Z,45.00
2023-05-22T04:11:33.354Z,50.63
2023-05-22T04:12:33.339Z,50.63
2023-05-22T04:13:33.319Z,50.63
2023-05-22T04:14:33.298Z,50.63
2023-05-22T04:15:33.292Z,56.25
2023-05-22T04:16:33.301Z,56.25
2023-05-22T04:17:33.401Z,56.25
2023-05-22T04:18:33.203Z,56.25
2023-05-22T04:19:33.288Z,56.25
2023-05-22T04:20:33.167Z,61.88
2023-05-22T04:21:33.145Z,61.88
2023-05-22T04:22:33.130Z,61.88
2023-05-22T04:23:33.103Z,61.88
2023-05-22T04:24:33.074Z,67.50
2023-05-22T04:25:33.054Z,67.50
2023-05-22T04:26:33.036Z,67.50
2023-05-22T04:27:33.009Z,67.50
2023-05-22T04:28:32.988Z,67.50
2023-05-22T04:29:32.965Z,73.13
2023-05-22T04:30:32.950Z,73.13
2023-05-22T04:31:32.953Z,73.13
2023-05-22T04:32:33.025Z,78.75
2023-05-22T04:33:32.878Z,78.75
2023-05-22T04:34:32.864Z,78.75
2023-05-22T04:35:32.835Z,78.75
2023-05-22T04:36:32.816Z,84.38
2023-05-22T04:37:32.799Z,84.38
2023-05-22T04:38:32.798Z,84.38
2023-05-22T04:39:32.752Z,90.00
2023-05-22T04:40:32.727Z,90.00
2023-05-22T04:41:32.711Z,90.00
2023-05-22T04:42:32.692Z,95.63
2023-05-22T04:43:32.661Z,95.63
2023-05-22T04:44:32.645Z,95.63
2023-05-22T04:45:32.616Z,101.25
2023-05-22T04:46:32.680Z,101.25
2023-05-22T04:47:32.684Z,101.25
2023-05-22T04:48:32.561Z,106.88
2023-05-22T04:49:32.536Z,106.88
2023-05-22T04:50:32.529Z,112.50
2023-05-22T04:51:32.487Z,112.50
2023-05-22T04:52:32.491Z,112.50
2023-05-22T04:53:32.451Z,112.50
2023-05-22T04:54:32.434Z,112.50
2023-05-22T04:55:32.402Z,112.50
2023-05-22T04:56:36.702Z,118.13
2023-05-22T04:57:32.371Z,118.13
2023-05-22T04:58:32.344Z,123.75
2023-05-22T04:59:32.326Z,123.75
2023-05-22T05:00:32.454Z,123.75
2023-05-22T05:01:33.432Z,129.38
2023-05-22T05:02:32.304Z,129.38
2023-05-22T05:03:32.262Z,135.00
2023-05-22T05:04:32.216Z,135.00
2023-05-22T05:05:32.201Z,135.00
2023-05-22T05:06:32.176Z,140.63
2023-05-22T05:07:32.154Z,140.63
2023-05-22T05:08:32.142Z,146.25
2023-05-22T05:09:32.110Z,146.25
2023-05-22T05:10:32.109Z,146.25
2023-05-22T05:11:32.090Z,151.88
2023-05-22T05:12:32.056Z,151.88
2023-05-22T05:13:32.030Z,151.88
2023-05-22T05:14:32.024Z,157.50
2023-05-22T05:15:31.989Z,157.50
2023-05-22T05:16:32.008Z,157.50
2023-05-22T05:17:31.976Z,163.13
2023-05-22T05:18:31.931Z,163.13
2023-05-22T05:19:32.408Z,163.13
2023-05-22T05:20:31.898Z,163.13
2023-05-22T05:21:31.865Z,168.75
2023-05-22T05:22:31.846Z,168.75
2023-05-22T05:23:31.824Z,168.75
2023-05-22T05:24:31.811Z,174.38
2023-05-22T05:25:31.778Z,174.38
2023-05-22T05:26:31.775Z,174.38
2023-05-22T05:27:31.751Z,185.63
2023-05-22T05:28:31.740Z,180.00
2023-05-22T05:29:31.701Z,180.00
2023-05-22T05:30:31.687Z,185.63
2023-05-22T05:31:31.696Z,185.63
2023-05-22T05:32:31.737Z,185.63
2023-05-22T05:33:31.624Z,191.25
2023-05-22T05:34:31.618Z,191.25
2023-05-22T05:35:31.617Z,191.25
2023-05-22T05:36:31.578Z,196.88
2023-05-22T05:37:31.580Z,196.88
2023-05-22T05:38:31.547Z,196.88
2023-05-22T05:39:31.518Z,202.50
2023-05-22T05:40:31.496Z,202.50
2023-05-22T05:41:31.480Z,202.50
2023-05-22T05:42:31.459Z,208.13
2023-05-22T05:43:31.456Z,208.13
2023-05-22T05:44:31.423Z,213.75
2023-05-22T05:45:31.425Z,213.75
2023-05-22T05:46:31.449Z,213.75
2023-05-22T05:47:31.399Z,213.75
2023-05-22T05:48:31.349Z,213.75
2023-05-22T05:49:31.655Z,213.75
2023-05-22T05:50:31.332Z,219.38
2023-05-22T05:51:31.291Z,219.38
2023-05-22T05:52:31.267Z,225.00
2023-05-22T05:53:31.255Z,225.00
2023-05-22T05:54:31.247Z,230.63
2023-05-22T05:55:32.698Z,230.63
2023-05-22T05:56:31.201Z,230.63
2023-05-22T05:57:31.213Z,236.25
2023-05-22T05:58:31.164Z,241.88
2023-05-22T05:59:31.143Z,241.88
2023-05-22T06:00:31.126Z,247.50
2023-05-22T06:01:31.105Z,247.50
2023-05-22T06:02:31.122Z,247.50
2023-05-22T06:03:31.226Z,253.13
2023-05-22T06:04:31.054Z,253.13
2023-05-22T06:05:31.066Z,258.75
2023-05-22T06:06:31.038Z,258.75
2023-05-22T06:07:31.005Z,258.75
2023-05-22T06:08:30.981Z,264.38
2023-05-22T06:09:30.964Z,264.38
2023-05-22T06:10:30.951Z,270.00
2023-05-22T06:11:30.935Z,270.00
2023-05-22T06:12:30.920Z,270.00
2023-05-22T06:13:30.909Z,275.63
2023-05-22T06:14:30.943Z,275.63
2023-05-22T06:15:30.861Z,281.25
2023-05-22T06:16:30.884Z,281.25
2023-05-22T06:17:30.850Z,286.88
2023-05-22T06:18:30.814Z,286.88
2023-05-22T06:19:30.884Z,286.88
2023-05-22T06:20:30.786Z,292.50
2023-05-22T06:21:30.756Z,292.50
2023-05-22T06:22:30.764Z,292.50
2023-05-22T06:23:30.726Z,292.50
2023-05-22T06:24:30.720Z,298.13
2023-05-22T06:25:30.700Z,298.13
2023-05-22T06:26:30.678Z,303.75
2023-05-22T06:27:30.831Z,303.75
2023-05-22T06:28:30.669Z,303.75
2023-05-22T06:29:30.641Z,309.38
2023-05-22T06:30:39.640Z,309.38
2023-05-22T06:31:30.606Z,309.38
2023-05-22T06:32:30.644Z,309.38
2023-05-22T06:33:30.668Z,315.00
2023-05-22T06:34:30.647Z,315.00
2023-05-22T06:35:30.557Z,315.00
2023-05-22T06:36:30.525Z,315.00
2023-05-22T06:37:30.514Z,315.00
2023-05-22T06:38:30.496Z,320.63
2023-05-22T06:39:31.878Z,320.63
2023-05-22T06:40:30.494Z,320.63
2023-05-22T06:41:30.450Z,326.25
2023-05-22T06:42:30.441Z,326.25
2023-05-22T06:43:30.417Z,331.88
2023-05-22T06:44:30.406Z,331.88
2023-05-22T06:45:30.482Z,331.88
2023-05-22T06:46:30.475Z,331.88
2023-05-22T06:47:30.364Z,331.88
2023-05-22T06:48:30.354Z,337.50
2023-05-22T06:49:30.334Z,337.50
2023-05-22T06:50:30.324Z,337.50
2023-05-22T06:51:30.297Z,337.50
2023-05-22T06:52:30.292Z,343.13
2023-05-22T06:53:30.316Z,343.13
2023-05-22T06:54:30.280Z,343.13
2023-05-22T06:55:30.240Z,343.13
2023-05-22T06:56:30.230Z,348.75
2023-05-22T06:57:30.215Z,348.75
2023-05-22T06:58:30.206Z,348.75
2023-05-22T06:59:30.232Z,354.38
2023-05-22T07:00:30.174Z,354.38
2023-05-22T07:01:30.160Z,365.63
2023-05-22T07:02:30.197Z,360.00
2023-05-22T07:03:30.130Z,360.00
2023-05-22T07:04:30.131Z,360.00
2023-05-22T07:05:30.120Z,360.00
2023-05-22T07:06:30.092Z,365.63
2023-05-22T07:07:30.080Z,365.63
2023-05-22T07:08:30.855Z,365.63
2023-05-22T07:09:30.054Z,365.63
2023-05-22T07:10:30.033Z,371.25
2023-05-22T07:11:30.032Z,376.88
2023-05-22T07:12:30.012Z,376.88
2023-05-22T07:13:30.001Z,376.88
2023-05-22T07:14:30.001Z,382.50
2023-05-22T07:15:30.075Z,388.13
2023-05-22T07:16:30.000Z,388.13
2023-05-22T07:17:29.963Z,388.13
2023-05-22T07:18:29.957Z,393.75
2023-05-22T07:19:30.029Z,393.75
2023-05-22T07:20:29.933Z,399.38
2023-05-22T07:21:29.888Z,399.38
2023-05-22T07:22:29.892Z,410.63
2023-05-22T07:23:29.870Z,416.25
2023-05-22T07:24:29.861Z,416.25
2023-05-22T07:25:29.847Z,410.63
2023-05-22T07:26:29.860Z,416.25
2023-05-22T07:27:29.817Z,416.25
2023-05-22T07:28:29.810Z,416.25
2023-05-22T07:29:29.795Z,416.25
2023-05-22T07:30:29.782Z,416.25
2023-05-22T07:31:29.962Z,416.25
2023-05-22T07:32:29.841Z,416.25
2023-05-22T07:33:29.750Z,410.63
2023-05-22T07:34:29.742Z,410.63
2023-05-22T07:35:29.714Z,410.63
2023-05-22T07:36:29.726Z,405.00
2023-05-22T07:37:29.693Z,405.00
2023-05-22T07:38:29.691Z,410.63
2023-05-22T07:39:29.738Z,410.63
2023-05-22T07:40:29.671Z,410.63
2023-05-22T07:41:29.645Z,410.63
2023-05-22T07:42:29.672Z,410.63
2023-05-22T07:43:29.639Z,405.00
2023-05-22T07:44:29.640Z,405.00
2023-05-22T07:45:29.611Z,399.38
2023-05-22T07:46:29.702Z,399.38
2023-05-22T07:47:29.720Z,399.38
2023-05-22T07:48:29.589Z,399.38
2023-05-22T07:49:29.552Z,393.75
2023-05-22T07:50:30.074Z,393.75
2023-05-22T07:51:29.541Z,399.38
2023-05-22T07:52:29.562Z,399.38
2023-05-22T07:53:29.522Z,399.38
2023-05-22T07:54:29.520Z,393.75
2023-05-22T07:55:29.591Z,393.75
2023-05-22T07:56:29.600Z,393.75
2023-05-22T07:57:29.587Z,393.75
2023-05-22T07:58:29.471Z,388.13
2023-05-22T07:59:29.442Z,382.50
2023-05-22T08:00:29.427Z,382.50
2023-05-22T08:01:29.426Z,376.88
2023-05-22T08:02:29.463Z,376.88
2023-05-22T08:03:29.843Z,376.88
2023-05-22T08:04:29.581Z,376.88
2023-05-22T08:05:29.391Z,376.88
2023-05-22T08:06:29.395Z,371.25
2023-05-22T08:07:29.361Z,371.25
2023-05-22T08:08:31.270Z,365.63
2023-05-22T08:09:29.341Z,365.63
2023-05-22T08:10:37.264Z,365.63
2023-05-22T08:11:29.309Z,371.25
2023-05-22T08:12:29.290Z,365.63
2023-05-22T08:13:29.305Z,365.63
2023-05-22T08:14:29.273Z,365.63
2023-05-22T08:15:29.263Z,365.63
2023-05-22T08:16:29.265Z,360.00
2023-05-22T08:17:29.297Z,360.00
2023-05-22T08:18:29.637Z,360.00
2023-05-22T08:19:29.324Z,360.00
2023-05-22T08:20:29.243Z,354.38
2023-05-22T08:21:29.203Z,354.38
2023-05-22T08:22:29.173Z,354.38
2023-05-22T08:23:29.173Z,354.38
2023-05-22T08:24:29.147Z,354.38
2023-05-22T08:25:29.147Z,354.38
2023-05-22T08:26:30.119Z,348.75
2023-05-22T08:27:29.119Z,348.75
2023-05-22T08:28:29.103Z,348.75
2023-05-22T08:29:29.115Z,348.75
2023-05-22T08:30:29.087Z,348.75
2023-05-22T08:31:29.097Z,354.38
2023-05-22T08:32:30.586Z,348.75
2023-05-22T08:33:29.048Z,354.38
2023-05-22T08:34:29.029Z,348.75
2023-05-22T08:35:29.154Z,354.38
2023-05-22T08:36:29.014Z,348.75
2023-05-22T08:37:29.012Z,354.38
2023-05-22T08:38:28.991Z,348.75
2023-05-22T08:39:29.030Z,348.75
2023-05-22T08:40:28.964Z,348.75
2023-05-22T08:41:28.954Z,343.13
2023-05-22T08:42:28.952Z,348.75
2023-05-22T08:43:28.938Z,348.75
2023-05-22T08:44:28.915Z,348.75
2023-05-22T08:45:28.910Z,343.13
2023-05-22T08:46:28.933Z,343.13
2023-05-22T08:47:28.894Z,343.13
2023-05-22T08:48:28.861Z,343.13
2023-05-22T08:49:28.859Z,337.50
2023-05-22T08:50:28.835Z,337.50
2023-05-22T08:51:29.023Z,337.50
2023-05-22T08:52:28.811Z,343.13
2023-05-22T08:53:28.810Z,348.75
2023-05-22T08:54:28.793Z,343.13
2023-05-22T08:55:28.770Z,343.13
2023-05-22T08:56:29.759Z,343.13
2023-05-22T08:57:28.757Z,348.75
2023-05-22T08:58:28.732Z,348.75
2023-05-22T08:59:28.724Z,348.75
2023-05-22T09:00:28.732Z,354.38
2023-05-22T09:01:28.749Z,360.00
2023-05-22T09:02:28.733Z,360.00
2023-05-22T09:03:28.763Z,360.00
2023-05-22T09:04:28.744Z,365.63
2023-05-22T09:05:28.646Z,371.25
2023-05-22T09:06:28.630Z,376.88
2023-05-22T09:07:28.710Z,382.50
2023-05-22T09:08:28.656Z,388.13
2023-05-22T09:09:28.592Z,393.75
2023-05-22T09:10:28.578Z,399.38
2023-05-22T09:11:28.586Z,399.38
2023-05-22T09:12:28.568Z,399.38
2023-05-22T09:13:28.589Z,399.38
2023-05-22T09:14:28.538Z,399.38
2023-05-22T09:15:28.525Z,405.00
2023-05-22T09:16:28.518Z,405.00
2023-05-22T09:17:28.565Z,405.00
2023-05-22T09:18:28.473Z,410.63
2023-05-22T09:19:28.509Z,410.63
2023-05-22T09:20:28.460Z,416.25
2023-05-22T09:21:30.496Z,421.88
2023-05-22T09:22:28.493Z,421.88
2023-05-22T09:23:28.500Z,421.88
2023-05-22T09:24:28.425Z,427.50
2023-05-22T09:25:28.402Z,427.50
2023-05-22T09:26:28.396Z,433.13
2023-05-22T09:27:28.393Z,438.75
2023-05-22T09:28:28.385Z,438.75
2023-05-22T09:29:28.366Z,438.75
2023-05-22T09:30:28.347Z,438.75
2023-05-22T09:31:28.428Z,444.38
2023-05-22T09:32:28.341Z,444.38
2023-05-22T09:33:28.314Z,455.63
2023-05-22T09:34:28.293Z,450.00
2023-05-22T09:35:28.302Z,455.63
2023-05-22T09:36:28.276Z,461.25
2023-05-22T09:37:28.266Z,472.50
2023-05-22T09:38:28.252Z,472.50
2023-05-22T09:39:28.327Z,478.13
2023-05-22T09:40:28.249Z,483.75
2023-05-22T09:41:28.232Z,489.38
2023-05-22T09:42:28.220Z,495.00
2023-05-22T09:43:28.207Z,483.75
2023-05-22T09:44:28.196Z,506.25
2023-05-22T09:45:28.185Z,528.75
2023-05-22T09:46:28.232Z,528.75
2023-05-22T09:47:28.202Z,534.38
2023-05-22T09:48:28.153Z,545.63
2023-05-22T09:49:28.147Z,556.88
2023-05-22T09:50:28.133Z,568.13
2023-05-22T09:51:28.124Z,590.63
2023-05-22T09:52:28.108Z,607.50
2023-05-22T09:53:28.151Z,613.13
2023-05-22T09:54:28.095Z,624.38
2023-05-22T09:55:28.103Z,641.25
2023-05-22T09:56:38.467Z,652.50
2023-05-22T09:57:28.071Z,663.75
2023-05-22T09:58:28.061Z,675.00
2023-05-22T09:59:28.052Z,658.13
2023-05-22T10:00:28.050Z,652.50
2023-05-22T10:01:28.077Z,691.88
2023-05-22T10:02:28.054Z,624.38
2023-05-22T10:03:28.025Z,669.38
2023-05-22T10:04:28.065Z,736.88
2023-05-22T10:05:28.001Z,748.13
2023-05-22T10:06:27.990Z,793.13
2023-05-22T10:07:27.984Z,765.00
2023-05-22T10:08:27.972Z,843.75
2023-05-22T10:09:27.969Z,860.63
2023-05-22T10:10:27.951Z,883.13
2023-05-22T10:11:27.967Z,933.75
2023-05-22T10:12:27.935Z,815.63
2023-05-22T10:13:27.936Z,967.50
2023-05-22T10:14:28.889Z,950.63
2023-05-22T10:15:27.919Z,1012.50
2023-05-22T10:16:27.939Z,1051.88
2023-05-22T10:17:27.934Z,1068.75
2023-05-22T10:18:27.895Z,1113.75
2023-05-22T10:19:27.950Z,1192.50
2023-05-22T10:20:27.874Z,1215.00
2023-05-22T10:21:27.877Z,1108.13
2023-05-22T10:22:27.897Z,1321.88
2023-05-22T10:23:27.859Z,1299.38
2023-05-22T10:24:27.849Z,1108.13
2023-05-22T10:25:27.854Z,1136.25
2023-05-22T10:26:28.025Z,1051.88
2023-05-22T10:27:27.938Z,973.13
2023-05-22T10:28:27.829Z,1575.00
2023-05-22T10:29:27.825Z,1569.38
2023-05-22T10:30:27.807Z,1265.63
2023-05-22T10:31:27.818Z,990.00
2023-05-22T10:32:27.858Z,933.75
2023-05-22T10:33:27.812Z,945.00
2023-05-22T10:34:27.786Z,961.88
2023-05-22T10:35:27.806Z,1012.50
2023-05-22T10:36:27.800Z,1147.50
2023-05-22T10:37:27.780Z,995.63
2023-05-22T10:38:27.772Z,995.63
2023-05-22T10:39:27.763Z,1040.63
2023-05-22T10:40:27.755Z,1203.75
2023-05-22T10:41:27.780Z,2025.00
2023-05-22T10:42:27.742Z,1676.25
2023-05-22T10:43:27.838Z,1271.25
2023-05-22T10:44:27.741Z,1681.88
2023-05-22T10:45:27.775Z,1293.75
2023-05-22T10:46:27.839Z,1456.88
2023-05-22T10:47:27.783Z,1383.75
2023-05-22T10:48:27.702Z,1923.75
2023-05-22T10:49:27.700Z,1513.13
2023-05-22T10:50:27.688Z,1170.00
2023-05-22T10:51:27.701Z,1119.38
2023-05-22T10:52:27.683Z,1231.88
2023-05-22T10:53:27.677Z,1231.88
2023-05-22T10:54:27.678Z,1760.63
2023-05-22T10:55:27.664Z,1383.75
2023-05-22T10:56:27.656Z,1440.00
2023-05-22T10:57:27.652Z,1929.38
2023-05-22T10:58:27.635Z,1856.25
2023-05-22T10:59:27.743Z,1451.25
2023-05-22T11:00:27.629Z,1670.63
2023-05-22T11:01:27.707Z,1805.63
2023-05-22T11:02:27.709Z,1575.00
2023-05-22T11:03:27.670Z,2317.50
2023-05-22T11:04:27.720Z,1355.63
2023-05-22T11:05:27.605Z,1400.63
2023-05-22T11:06:27.597Z,1535.63
2023-05-22T11:07:27.590Z,2486.25
2023-05-22T11:08:27.594Z,1918.13
2023-05-22T11:09:27.590Z,2767.50
2023-05-22T11:10:27.590Z,2486.25
2023-05-22T11:11:27.617Z,1783.13
2023-05-22T11:12:27.575Z,1693.13
2023-05-22T11:13:29.410Z,2503.13
2023-05-22T11:14:27.565Z,1687.50
2023-05-22T11:15:27.659Z,2053.13
2023-05-22T11:16:27.585Z,2413.13
2023-05-22T11:17:27.630Z,2064.38
2023-05-22T11:18:27.543Z,2047.50
2023-05-22T11:19:27.558Z,2345.63
2023-05-22T11:20:27.530Z,2154.38
2023-05-22T11:21:27.537Z,1698.75
2023-05-22T11:22:28.184Z,1456.88
2023-05-22T11:23:27.525Z,2919.38
2023-05-22T11:24:27.511Z,3076.88
2023-05-22T11:25:27.546Z,2430.00
2023-05-22T11:26:28.225Z,2148.75
2023-05-22T11:27:27.508Z,3223.13
2023-05-22T11:28:27.506Z,3189.38
2023-05-22T11:29:27.504Z,3138.75
2023-05-22T11:30:27.532Z,3121.88
2023-05-22T11:31:27.529Z,3082.50
2023-05-22T11:32:27.477Z,3161.25
2023-05-22T11:33:27.491Z,3166.88
2023-05-22T11:34:27.532Z,3172.50
2023-05-22T11:35:27.492Z,3183.75
2023-05-22T11:36:27.482Z,3217.50
2023-05-22T11:37:27.512Z,3245.63
2023-05-22T11:38:27.476Z,3279.38
2023-05-22T11:39:27.484Z,3301.88
2023-05-22T11:40:27.473Z,3206.25
2023-05-22T11:41:27.478Z,3217.50
2023-05-22T11:42:27.480Z,3273.75
2023-05-22T11:43:27.481Z,3279.38
2023-05-22T11:44:27.517Z,3313.13
2023-05-22T11:45:27.516Z,3369.38
2023-05-22T11:46:27.530Z,3375.00
2023-05-22T11:47:27.596Z,3386.25
2023-05-22T11:48:27.507Z,3397.50
2023-05-22T11:49:27.487Z,3414.38
2023-05-22T11:50:40.895Z,3403.13
2023-05-22T11:51:27.479Z,3397.50
2023-05-22T11:52:27.479Z,3386.25
2023-05-22T11:53:27.474Z,3397.50
2023-05-22T11:54:27.498Z,3425.63
2023-05-22T11:55:27.469Z,3453.75
2023-05-22T11:56:27.468Z,3459.38
2023-05-22T11:57:28.199Z,3459.38
2023-05-22T11:58:27.466Z,3436.88
2023-05-22T11:59:27.475Z,3476.25
2023-05-22T12:00:27.502Z,3481.88
2023-05-22T12:01:27.469Z,3481.88
2023-05-22T12:02:27.595Z,3459.38
2023-05-22T12:03:27.682Z,3481.88
2023-05-22T12:04:27.509Z,3453.75
2023-05-22T12:05:27.477Z,3453.75
2023-05-22T12:06:27.506Z,3448.13
2023-05-22T12:07:27.459Z,3442.50
2023-05-22T12:08:27.530Z,3420.00
2023-05-22T12:09:27.470Z,3425.63
2023-05-22T12:10:27.474Z,3420.00
2023-05-22T12:11:27.485Z,3403.13
2023-05-22T12:12:27.505Z,3414.38
2023-05-22T12:13:27.468Z,3414.38
2023-05-22T12:14:27.471Z,3420.00
2023-05-22T12:15:27.468Z,3408.75
2023-05-22T12:16:27.522Z,3391.88
2023-05-22T12:17:27.494Z,3369.38
2023-05-22T12:18:27.475Z,3352.50
2023-05-22T12:19:27.613Z,3318.75
2023-05-22T12:20:27.477Z,3307.50
2023-05-22T12:21:27.516Z,3313.13
2023-05-22T12:22:27.483Z,3324.38
2023-05-22T12:23:27.472Z,3335.63
2023-05-22T12:24:27.492Z,3341.25
2023-05-22T12:25:27.481Z,3358.13
2023-05-22T12:26:27.475Z,3346.88
2023-05-22T12:27:27.496Z,3335.63
2023-05-22T12:28:27.482Z,3346.88
2023-05-22T12:29:27.478Z,3313.13
2023-05-22T12:30:27.483Z,3318.75
2023-05-22T12:31:27.547Z,3296.25
2023-05-22T12:32:27.634Z,3273.75
2023-05-22T12:33:28.214Z,3279.38
2023-05-22T12:34:27.496Z,3223.13
2023-05-22T12:35:27.589Z,3228.75
2023-05-22T12:36:27.501Z,3195.00
2023-05-22T12:37:27.496Z,3200.63
2023-05-22T12:38:27.496Z,3234.38
2023-05-22T12:39:27.500Z,3223.13